createdAt,value
2023-04-09T00:02:14.698Z,21.80
2023-04-09T00:04:41.280Z,18.43
2023-04-09T00:07:07.842Z,19.13
2023-04-09T00:09:34.565Z,18.50
2023-04-09T00:12:02.301Z,19.77
2023-04-09T00:14:29.030Z,18.97
2023-04-09T00:16:55.796Z,16.83
2023-04-09T00:19:22.578Z,16.40
2023-04-09T00:21:49.275Z,18.87
2023-04-09T00:24:16.148Z,16.00
2023-04-09T00:26:42.915Z,21.90
2023-04-09T00:29:09.590Z,23.00
2023-04-09T00:31:36.200Z,23.00
2023-04-09T00:34:02.921Z,21.00
2023-04-09T00:36:29.617Z,20.83
2023-04-09T00:38:56.271Z,25.20
2023-04-09T00:41:22.935Z,28.17
2023-04-09T00:43:49.520Z,25.07
2023-04-09T00:46:17.586Z,20.53
2023-04-09T00:48:44.260Z,19.37
2023-04-09T00:51:11.068Z,20.73
2023-04-09T00:53:37.866Z,23.80
2023-04-09T00:56:06.258Z,25.23
2023-04-09T00:58:32.823Z,19.83
2023-04-09T01:00:59.567Z,20.37
2023-04-09T01:03:26.503Z,18.97
2023-04-09T01:06:15.684Z,19.33
2023-04-09T01:08:53.059Z,16.93
2023-04-09T01:11:46.556Z,21.63
2023-04-09T01:14:35.093Z,19.97
2023-04-09T01:17:15.646Z,24.67
2023-04-09T01:20:12.231Z,22.47
2023-04-09T01:22:53.455Z,17.97
2023-04-09T01:25:27.563Z,21.97
2023-04-09T01:28:19.297Z,17.93
2023-04-09T01:30:50.305Z,19.73
2023-04-09T01:33:19.186Z,22.67
2023-04-09T01:35:47.965Z,23.03
2023-04-09T01:38:16.718Z,22.97
2023-04-09T01:40:43.763Z,23.50
2023-04-09T01:43:12.141Z,19.77
2023-04-09T01:45:40.425Z,20.90
2023-04-09T01:48:07.712Z,18.73
2023-04-09T01:50:34.495Z,20.40
2023-04-09T01:53:02.503Z,21.53
2023-04-09T01:55:29.114Z,21.07
2023-04-09T01:57:55.908Z,21.10
2023-04-09T02:00:24.658Z,24.87
2023-04-09T02:03:00.853Z,21.30
2023-04-09T02:05:32.396Z,24.57
2023-04-09T02:08:02.934Z,24.00
2023-04-09T02:10:32.211Z,17.53
2023-04-09T02:13:03.708Z,17.73
2023-04-09T02:15:32.402Z,20.97
2023-04-09T02:17:59.136Z,19.73
2023-04-09T02:20:25.733Z,21.87
2023-04-09T02:22:52.510Z,20.13
2023-04-09T02:25:19.423Z,17.90
2023-04-09T02:27:46.055Z,19.57
2023-04-09T02:30:12.822Z,20.13
2023-04-09T02:32:39.537Z,22.77
2023-04-09T02:35:06.584Z,20.50
2023-04-09T02:37:35.443Z,20.37
2023-04-09T02:40:02.065Z,24.43
2023-04-09T02:42:28.667Z,17.23
2023-04-09T02:44:55.344Z,18.20
2023-04-09T02:47:22.082Z,19.10
2023-04-09T02:49:48.722Z,16.87
2023-04-09T02:55:09.641Z,19.33
2023-04-09T02:57:36.500Z,17.70
2023-04-09T03:00:03.156Z,21.10
2023-04-09T03:02:30.030Z,20.70
2023-04-09T03:04:56.808Z,22.87
2023-04-09T03:07:23.426Z,18.33
2023-04-09T03:09:50.019Z,18.60
2023-04-09T03:12:16.785Z,19.80
2023-04-09T03:14:43.415Z,17.50
2023-04-09T03:17:10.064Z,16.30
2023-04-09T03:19:36.655Z,18.67
2023-04-09T03:22:03.314Z,15.60
2023-04-09T03:24:31.486Z,18.13
2023-04-09T03:26:58.239Z,16.37
2023-04-09T03:29:24.819Z,14.70
2023-04-09T03:31:51.628Z,18.47
2023-04-09T03:34:18.259Z,20.57
2023-04-09T03:36:44.983Z,14.87
2023-04-09T03:39:11.647Z,21.87
2023-04-09T03:41:38.355Z,17.50
2023-04-09T03:44:05.185Z,17.23
2023-04-09T03:46:31.870Z,16.77
2023-04-09T03:48:58.533Z,17.20
2023-04-09T03:51:25.086Z,16.97
2023-04-09T03:53:51.762Z,19.17
2023-04-09T03:56:18.492Z,15.10
2023-04-09T03:58:45.010Z,17.43
2023-04-09T04:01:11.697Z,16.73
2023-04-09T04:03:38.489Z,15.37
2023-04-09T04:06:05.602Z,18.53
2023-04-09T04:08:32.185Z,20.73
2023-04-09T04:11:05.649Z,22.67
2023-04-09T04:13:32.418Z,28.33
2023-04-09T04:15:59.288Z,18.50
2023-04-09T04:18:25.926Z,22.23
2023-04-09T04:20:52.616Z,18.77
2023-04-09T04:23:19.178Z,17.90
2023-04-09T04:25:45.786Z,22.03
2023-04-09T04:28:12.457Z,19.37
2023-04-09T04:30:42.175Z,21.97
2023-04-09T04:33:09.048Z,22.00
2023-04-09T04:35:35.700Z,18.00
2023-04-09T04:38:02.726Z,24.60
2023-04-09T04:40:29.370Z,18.33
2023-04-09T04:42:56.004Z,28.00
2023-04-09T04:45:22.563Z,22.87
2023-04-09T04:47:49.309Z,21.13
2023-04-09T04:50:15.965Z,16.10
2023-04-09T04:52:42.598Z,18.53
2023-04-09T04:55:09.248Z,21.30
2023-04-09T04:57:36.004Z,22.40
2023-04-09T05:00:02.787Z,20.47
2023-04-09T05:02:29.632Z,21.73
2023-04-09T05:04:56.527Z,18.10
2023-04-09T05:07:23.281Z,18.47
2023-04-09T05:09:49.954Z,19.40
2023-04-09T05:12:18.176Z,15.63
2023-04-09T05:14:44.698Z,18.70
2023-04-09T05:17:11.279Z,15.60
2023-04-09T05:19:37.981Z,18.63
2023-04-09T05:22:04.714Z,20.97
2023-04-09T05:24:31.289Z,15.47
2023-04-09T05:26:58.072Z,16.50
2023-04-09T05:29:24.708Z,21.73
2023-04-09T05:31:51.306Z,18.17
2023-04-09T05:34:17.900Z,18.50
2023-04-09T05:36:44.473Z,25.63
2023-04-09T05:39:11.137Z,19.07
2023-04-09T05:41:38.805Z,20.10
2023-04-09T05:44:06.165Z,20.53
2023-04-09T05:46:32.882Z,20.30
2023-04-09T05:48:59.583Z,21.27
2023-04-09T05:51:26.330Z,26.03
2023-04-09T05:53:53.201Z,18.23
2023-04-09T05:56:22.768Z,21.43
2023-04-09T05:58:49.368Z,19.43
2023-04-09T06:01:16.152Z,19.63
2023-04-09T06:03:43.793Z,19.77
2023-04-09T06:06:11.112Z,18.33
2023-04-09T06:08:37.652Z,17.23
2023-04-09T06:11:04.894Z,18.33
2023-04-09T06:13:31.356Z,20.87
2023-04-09T06:15:58.007Z,21.13
2023-04-09T06:18:24.674Z,20.23
2023-04-09T06:20:51.341Z,22.57
2023-04-09T06:23:17.973Z,19.37
2023-04-09T06:25:44.521Z,21.13
2023-04-09T06:28:11.808Z,20.23
2023-04-09T06:30:38.467Z,22.63
2023-04-09T06:33:05.085Z,21.57
2023-04-09T06:35:31.914Z,21.13
2023-04-09T06:37:58.628Z,25.27
2023-04-09T06:40:25.237Z,23.77
2023-04-09T06:42:51.969Z,21.90
2023-04-09T06:45:18.551Z,16.37
2023-04-09T06:47:45.210Z,20.13
2023-04-09T06:50:11.912Z,20.30
2023-04-09T06:52:38.515Z,17.90
2023-04-09T06:55:05.893Z,16.83
2023-04-09T06:57:32.531Z,16.33
2023-04-09T06:59:59.334Z,16.90
2023-04-09T07:02:26.601Z,20.63
2023-04-09T07:04:53.596Z,19.17
2023-04-09T07:07:21.065Z,16.37
2023-04-09T07:09:47.643Z,18.03
2023-04-09T07:12:14.399Z,20.83
2023-04-09T07:14:40.969Z,18.57
2023-04-09T07:17:07.579Z,18.87
2023-04-09T07:19:34.427Z,20.87
2023-04-09T07:22:01.045Z,17.17
2023-04-09T07:24:27.655Z,20.03
2023-04-09T07:26:54.839Z,19.63
2023-04-09T07:29:22.530Z,18.87
2023-04-09T07:31:49.276Z,20.97
2023-04-09T07:34:15.970Z,17.77
2023-04-09T07:36:43.040Z,17.77
2023-04-09T07:39:09.821Z,16.57
2023-04-09T07:41:36.851Z,18.77
2023-04-09T07:44:04.308Z,20.43
2023-04-09T07:46:30.927Z,19.27
2023-04-09T07:48:57.603Z,16.77
2023-04-09T07:51:25.264Z,16.53
2023-04-09T07:53:51.859Z,16.77
2023-04-09T07:56:18.414Z,15.87
2023-04-09T07:58:45.029Z,13.67
2023-04-09T08:01:11.725Z,16.60
2023-04-09T08:03:38.568Z,16.60
2023-04-09T08:06:05.581Z,13.50
2023-04-09T08:08:32.173Z,17.33
2023-04-09T08:10:58.791Z,15.03
2023-04-09T08:13:25.559Z,12.83
2023-04-09T08:15:52.382Z,14.83
2023-04-09T08:18:19.079Z,13.13
2023-04-09T08:20:45.831Z,13.67
2023-04-09T08:23:12.859Z,13.87
2023-04-09T08:25:39.452Z,14.73
2023-04-09T08:28:06.673Z,17.53
2023-04-09T08:30:34.431Z,14.37
2023-04-09T08:33:02.259Z,13.03
2023-04-09T08:35:31.144Z,13.87
2023-04-09T08:37:58.096Z,15.03
2023-04-09T08:40:24.742Z,15.43
2023-04-09T08:42:57.220Z,22.77
2023-04-09T08:45:24.321Z,12.20
2023-04-09T08:47:51.791Z,14.57
2023-04-09T08:50:19.564Z,18.03
2023-04-09T08:52:49.257Z,13.13
2023-04-09T08:55:16.132Z,12.10
2023-04-09T08:57:43.544Z,15.70
2023-04-09T09:00:10.884Z,13.07
2023-04-09T09:02:39.585Z,18.50
2023-04-09T09:05:06.811Z,13.50
2023-04-09T09:07:34.282Z,14.38
2023-04-09T09:10:05.198Z,12.30
2023-04-09T09:12:39.575Z,12.87
2023-04-09T09:15:27.093Z,11.60
2023-04-09T09:18:00.234Z,14.00
2023-04-09T09:20:27.845Z,14.90
2023-04-09T09:22:56.635Z,16.00
2023-04-09T09:25:24.895Z,12.30
2023-04-09T09:27:52.590Z,16.47
2023-04-09T09:30:27.448Z,14.07
2023-04-09T09:32:55.075Z,15.27
2023-04-09T09:35:22.013Z,15.33
2023-04-09T09:38:01.489Z,15.20
2023-04-09T09:40:28.877Z,16.77
2023-04-09T09:42:58.262Z,14.93
2023-04-09T09:45:25.958Z,14.50
2023-04-09T09:47:54.031Z,15.03
2023-04-09T09:50:25.489Z,14.67
2023-04-09T09:52:59.057Z,14.02
2023-04-09T09:55:31.101Z,11.82
2023-04-09T09:58:02.175Z,11.75
2023-04-09T10:00:32.148Z,14.97
2023-04-09T10:03:14.678Z,14.10
2023-04-09T10:05:42.237Z,12.32
2023-04-09T10:08:10.311Z,13.00
2023-04-09T10:10:39.328Z,13.45
2023-04-09T10:13:07.811Z,14.40
2023-04-09T10:15:34.492Z,13.70
2023-04-09T10:18:02.113Z,14.98
2023-04-09T10:21:12.679Z,9.07
2023-04-09T10:23:44.501Z,11.85
2023-04-09T10:26:11.506Z,11.15
2023-04-09T10:28:38.584Z,10.50
2023-04-09T10:31:06.979Z,13.50
2023-04-09T10:33:37.315Z,11.43
2023-04-09T10:36:06.251Z,10.90
2023-04-09T10:38:47.007Z,12.65
2023-04-09T10:41:27.899Z,9.93
2023-04-09T10:43:57.802Z,9.00
2023-04-09T10:46:35.010Z,11.95
2023-04-09T10:49:12.428Z,12.00
2023-04-09T10:51:40.354Z,13.52
2023-04-09T10:54:27.889Z,11.10
2023-04-09T10:57:24.746Z,13.00
2023-04-09T10:59:55.666Z,12.18
2023-04-09T11:02:40.739Z,12.83
2023-04-09T11:05:26.046Z,11.77
2023-04-09T11:08:04.598Z,10.23
2023-04-09T11:10:32.438Z,10.90
2023-04-09T11:12:59.779Z,10.67
2023-04-09T11:15:26.632Z,8.70
2023-04-09T11:17:53.332Z,12.93
2023-04-09T11:20:24.120Z,14.60
2023-04-09T11:22:52.657Z,10.10
2023-04-09T11:25:25.607Z,9.87
2023-04-09T11:27:55.977Z,11.00
2023-04-09T11:30:22.642Z,9.60
2023-04-09T11:32:50.464Z,9.27
2023-04-09T11:35:19.842Z,10.20
2023-04-09T11:37:47.455Z,10.37
2023-04-09T11:40:19.981Z,9.52
2023-04-09T11:42:48.872Z,8.05
2023-04-09T11:45:16.973Z,8.43
2023-04-09T11:47:44.895Z,9.20
2023-04-09T11:50:13.310Z,8.43
2023-04-09T11:52:41.537Z,9.25
2023-04-09T11:55:10.588Z,10.02
2023-04-09T11:57:41.861Z,11.68
2023-04-09T12:00:13.976Z,11.50
2023-04-09T12:02:46.766Z,12.35
2023-04-09T12:05:41.057Z,12.73
2023-04-09T12:08:09.069Z,9.88
2023-04-09T12:10:38.220Z,10.88
2023-04-09T12:13:10.581Z,10.95
2023-04-09T12:15:41.253Z,8.70
2023-04-09T12:18:09.536Z,9.90
2023-04-09T12:20:39.823Z,9.93
2023-04-09T12:23:07.574Z,11.30
2023-04-09T12:25:37.719Z,11.32
2023-04-09T12:28:06.617Z,10.23
2023-04-09T12:30:34.002Z,11.48
2023-04-09T12:33:01.233Z,11.45
2023-04-09T12:35:28.443Z,14.10
2023-04-09T12:37:55.761Z,10.30
2023-04-09T12:40:22.681Z,12.18
2023-04-09T12:42:49.549Z,11.27
2023-04-09T12:45:18.521Z,11.18
2023-04-09T12:47:46.022Z,10.57
2023-04-09T12:50:13.733Z,10.38
2023-04-09T12:52:40.668Z,11.00
2023-04-09T12:55:08.036Z,12.32
2023-04-09T12:57:34.976Z,12.23
2023-04-09T13:00:01.916Z,9.57
2023-04-09T13:02:28.827Z,10.90
2023-04-09T13:04:55.785Z,11.80
2023-04-09T13:07:22.902Z,15.38
2023-04-09T13:09:52.768Z,10.82
2023-04-09T13:12:21.594Z,11.50
2023-04-09T13:14:48.888Z,11.68
2023-04-09T13:17:16.433Z,10.98
2023-04-09T13:19:43.206Z,12.18
2023-04-09T13:22:10.607Z,14.90
2023-04-09T13:24:38.142Z,13.38
2023-04-09T13:27:06.507Z,10.63
2023-04-09T13:29:33.379Z,10.73
2023-04-09T13:32:02.946Z,8.23
2023-04-09T13:34:29.868Z,7.90
2023-04-09T13:36:56.736Z,12.02
2023-04-09T13:39:23.396Z,9.85
2023-04-09T13:41:50.031Z,10.30
2023-04-09T13:44:17.016Z,9.35
2023-04-09T13:46:43.768Z,10.32
2023-04-09T13:49:10.394Z,9.68
2023-04-09T13:51:37.276Z,10.30
2023-04-09T13:54:06.017Z,9.38
2023-04-09T13:56:33.141Z,10.10
2023-04-09T13:59:00.096Z,13.07
2023-04-09T14:01:28.458Z,11.30
2023-04-09T14:03:55.622Z,7.82
2023-04-09T14:06:22.873Z,10.98
2023-04-09T14:08:49.723Z,10.80
2023-04-09T14:11:16.943Z,10.32
2023-04-09T14:13:43.728Z,9.43
2023-04-09T14:16:10.801Z,8.73
2023-04-09T14:18:37.617Z,8.65
2023-04-09T14:21:04.787Z,10.98
2023-04-09T14:23:31.460Z,9.15
2023-04-09T14:25:58.264Z,8.23
2023-04-09T14:28:24.946Z,6.65
2023-04-09T14:30:51.713Z,9.65
2023-04-09T14:33:18.441Z,7.57
2023-04-09T14:35:45.277Z,7.72
2023-04-09T14:38:12.914Z,7.20
2023-04-09T14:40:39.470Z,7.03
2023-04-09T14:43:06.488Z,7.00
2023-04-09T14:45:33.248Z,6.23
2023-04-09T14:47:59.917Z,5.90
2023-04-09T14:50:26.762Z,7.93
2023-04-09T14:52:53.497Z,5.72
2023-04-09T14:55:20.328Z,5.50
2023-04-09T14:57:47.100Z,6.53
2023-04-09T15:00:13.911Z,5.47
2023-04-09T15:02:41.741Z,6.30
2023-04-09T15:05:09.185Z,5.00
2023-04-09T15:07:35.969Z,5.57
2023-04-09T15:10:02.950Z,5.20
2023-04-09T15:12:31.940Z,3.30
2023-04-09T15:14:58.847Z,4.50
2023-04-09T15:17:26.728Z,4.93
2023-04-09T15:19:54.304Z,5.15
2023-04-09T15:22:21.603Z,4.43
2023-04-09T15:24:48.313Z,4.88
2023-04-09T15:27:15.135Z,4.43
2023-04-09T15:29:41.872Z,5.07
2023-04-09T15:32:08.443Z,4.47
2023-04-09T15:34:35.172Z,4.93
2023-04-09T15:37:01.867Z,4.13
2023-04-09T15:39:28.740Z,4.77
2023-04-09T15:41:59.136Z,4.23
2023-04-09T15:44:26.235Z,5.43
2023-04-09T15:46:53.023Z,4.87
2023-04-09T15:49:20.159Z,3.60
2023-04-09T15:51:46.862Z,8.30
2023-04-09T15:54:13.524Z,11.57
2023-04-09T15:56:40.521Z,8.70
2023-04-09T15:59:08.485Z,10.73
2023-04-09T16:01:36.660Z,12.53
2023-04-09T16:04:04.933Z,9.23
2023-04-09T16:06:32.076Z,7.87
2023-04-09T16:08:58.914Z,9.03
2023-04-09T16:11:26.356Z,8.23
2023-04-09T16:13:53.447Z,10.00
2023-04-09T16:16:21.115Z,8.20
2023-04-09T16:18:47.898Z,10.53
2023-04-09T16:21:14.954Z,9.80
2023-04-09T16:23:41.747Z,9.00
2023-04-09T16:26:08.597Z,10.27
2023-04-09T16:28:35.508Z,9.50
2023-04-09T16:31:02.120Z,9.87
2023-04-09T16:33:28.780Z,11.60
2023-04-09T16:35:55.513Z,10.13
2023-04-09T16:38:23.824Z,8.50
2023-04-09T16:40:50.834Z,7.07
2023-04-09T16:43:17.656Z,8.67
2023-04-09T16:45:44.396Z,8.97
2023-04-09T16:48:12.612Z,12.70
2023-04-09T16:50:40.146Z,11.93
2023-04-09T16:53:08.435Z,11.40
2023-04-09T16:55:35.421Z,9.57
2023-04-09T16:58:02.014Z,9.37
2023-04-09T17:00:28.831Z,12.73
2023-04-09T17:02:56.839Z,12.43
2023-04-09T17:05:23.896Z,10.63
2023-04-09T17:07:50.633Z,10.37
2023-04-09T17:10:18.981Z,9.07
2023-04-09T17:12:45.893Z,10.90
2023-04-09T17:15:12.993Z,9.07
2023-04-09T17:17:39.828Z,8.60
2023-04-09T17:20:07.057Z,8.43
2023-04-09T17:22:35.166Z,11.50
2023-04-09T17:25:02.706Z,9.93
2023-04-09T17:27:29.316Z,8.33
2023-04-09T17:29:56.182Z,8.93
2023-04-09T17:32:22.885Z,9.13
2023-04-09T17:34:49.638Z,9.97
2023-04-09T17:37:16.596Z,8.27
2023-04-09T17:39:43.131Z,10.27
2023-04-09T17:42:12.025Z,9.03
2023-04-09T17:44:39.037Z,9.43
2023-04-09T17:47:07.556Z,10.77
2023-04-09T17:49:34.740Z,8.77
2023-04-09T17:52:01.817Z,8.03
2023-04-09T17:54:35.211Z,9.77
2023-04-09T17:57:04.233Z,10.77
2023-04-09T17:59:31.296Z,10.83
2023-04-09T18:01:58.167Z,12.27
2023-04-09T18:04:25.572Z,10.83
2023-04-09T18:06:52.711Z,9.30
2023-04-09T18:09:19.424Z,9.67
2023-04-09T18:11:46.607Z,10.13
2023-04-09T18:14:13.421Z,10.07
2023-04-09T18:16:40.467Z,10.90
2023-04-09T18:19:07.847Z,9.20
2023-04-09T18:21:37.857Z,10.87
2023-04-09T18:24:05.201Z,7.90
2023-04-09T18:26:33.946Z,7.40
2023-04-09T18:29:01.411Z,8.10
2023-04-09T18:31:28.727Z,10.97
2023-04-09T18:33:55.666Z,7.60
2023-04-09T18:36:22.537Z,7.87
2023-04-09T18:38:49.289Z,8.43
2023-04-09T18:41:25.596Z,7.87
2023-04-09T18:43:52.553Z,7.83
2023-04-09T18:46:19.438Z,8.90
2023-04-09T18:48:47.300Z,8.27
2023-04-09T18:51:14.883Z,8.00
2023-04-09T18:53:42.294Z,12.00
2023-04-09T18:56:09.371Z,10.90
2023-04-09T18:58:36.564Z,7.50
2023-04-09T19:01:11.432Z,12.33
2023-04-09T19:03:39.563Z,9.00
2023-04-09T19:06:14.608Z,10.63
2023-04-09T19:08:41.899Z,11.37
2023-04-09T19:11:08.585Z,10.90
2023-04-09T19:13:37.293Z,15.40
2023-04-09T19:16:04.730Z,9.63
2023-04-09T19:18:32.254Z,9.90
2023-04-09T19:20:59.004Z,11.53
2023-04-09T19:23:26.876Z,8.30
2023-04-09T19:25:55.397Z,7.30
2023-04-09T19:28:22.993Z,9.17
2023-04-09T19:30:53.855Z,7.90
2023-04-09T19:33:21.874Z,9.60
2023-04-09T19:35:49.241Z,9.23
2023-04-09T19:38:16.602Z,7.80
2023-04-09T19:40:43.432Z,8.37
2023-04-09T19:43:10.820Z,7.70
2023-04-09T19:45:38.801Z,6.17
2023-04-09T19:48:07.017Z,7.10
2023-04-09T19:50:41.282Z,7.37
2023-04-09T19:53:07.981Z,6.63
2023-04-09T19:55:35.035Z,8.20
2023-04-09T19:58:02.118Z,8.80
2023-04-09T20:00:29.090Z,7.70
2023-04-09T20:02:57.429Z,7.70
2023-04-09T20:05:24.435Z,7.73
2023-04-09T20:07:51.917Z,9.67
2023-04-09T20:10:19.231Z,10.77
2023-04-09T20:12:49.634Z,7.73
2023-04-09T20:15:20.513Z,7.37
2023-04-09T20:17:48.407Z,11.67
2023-04-09T20:20:19.842Z,7.40
2023-04-09T20:22:56.460Z,10.83
2023-04-09T20:25:24.477Z,10.63
2023-04-09T20:27:54.673Z,9.83
2023-04-09T20:30:21.557Z,8.73
2023-04-09T20:32:49.233Z,8.37
2023-04-09T20:35:16.079Z,8.37
2023-04-09T20:37:42.712Z,9.37
2023-04-09T20:40:11.822Z,11.23
2023-04-09T20:42:40.698Z,10.83
2023-04-09T20:45:08.464Z,9.53
2023-04-09T20:47:35.179Z,9.97
2023-04-09T20:50:02.372Z,8.70
2023-04-09T20:52:29.136Z,8.97
2023-04-09T20:54:57.358Z,8.43
2023-04-09T20:57:24.099Z,9.17
2023-04-09T20:59:51.058Z,10.33
2023-04-09T21:02:17.856Z,9.23
2023-04-09T21:04:44.971Z,9.03
2023-04-09T21:07:11.759Z,10.40
2023-04-09T21:09:38.548Z,12.27
2023-04-09T21:12:06.358Z,11.77
2023-04-09T21:14:33.174Z,11.00
2023-04-09T21:17:00.031Z,11.33
2023-04-09T21:19:26.707Z,10.87
2023-04-09T21:21:53.364Z,12.87
2023-04-09T21:24:20.084Z,10.03
2023-04-09T21:26:51.611Z,9.80
2023-04-09T21:29:21.318Z,7.30
2023-04-09T21:31:48.944Z,9.37
2023-04-09T21:34:16.241Z,10.10
2023-04-09T21:36:45.340Z,9.30
2023-04-09T21:39:12.469Z,11.20
2023-04-09T21:41:39.469Z,9.70
2023-04-09T21:44:08.698Z,10.60
2023-04-09T21:46:40.941Z,11.63
2023-04-09T21:49:07.733Z,8.97
2023-04-09T21:51:34.553Z,9.30
2023-04-09T21:54:04.755Z,9.00
2023-04-09T21:56:32.694Z,9.47
2023-04-09T21:58:59.544Z,9.77
2023-04-09T22:01:29.500Z,8.33
2023-04-09T22:03:58.098Z,8.97
2023-04-09T22:06:24.792Z,13.90
2023-04-09T22:08:56.328Z,8.80
2023-04-09T22:11:26.862Z,8.73
2023-04-09T22:13:53.789Z,9.00
2023-04-09T22:16:20.692Z,9.23
2023-04-09T22:18:47.501Z,10.63
2023-04-09T22:21:15.874Z,11.17
2023-04-09T22:23:42.702Z,12.73
2023-04-09T22:26:09.464Z,11.07
2023-04-09T22:28:36.115Z,12.83
2023-04-09T22:31:02.811Z,9.90
2023-04-09T22:33:29.445Z,11.30
2023-04-09T22:35:56.315Z,11.27
2023-04-09T22:38:23.118Z,11.73
2023-04-09T22:40:49.664Z,10.90
2023-04-09T22:43:17.318Z,9.00
2023-04-09T22:45:51.586Z,10.37
2023-04-09T22:48:19.107Z,12.00
2023-04-09T22:50:46.157Z,11.90
2023-04-09T22:53:13.292Z,11.10
2023-04-09T22:55:39.922Z,8.10
2023-04-09T22:58:06.792Z,8.90
2023-04-09T23:00:33.364Z,9.30
2023-04-09T23:03:00.210Z,9.03
2023-04-09T23:05:27.012Z,8.90
2023-04-09T23:07:53.673Z,7.77
2023-04-09T23:10:20.693Z,10.77
2023-04-09T23:12:47.309Z,11.43
2023-04-09T23:15:14.194Z,9.30
2023-04-09T23:17:41.915Z,10.10
2023-04-09T23:20:11.417Z,9.60
2023-04-09T23:22:38.030Z,10.07
2023-04-09T23:25:05.023Z,9.70
2023-04-09T23:27:31.609Z,9.93
2023-04-09T23:29:58.671Z,9.60
2023-04-09T23:32:25.444Z,10.43
2023-04-09T23:34:52.286Z,10.53
2023-04-09T23:37:19.281Z,11.20
2023-04-09T23:39:48.899Z,10.90
2023-04-09T23:42:15.678Z,12.80
2023-04-09T23:44:44.129Z,9.93
2023-04-09T23:47:11.455Z,9.80
2023-04-09T23:49:38.268Z,10.07
2023-04-09T23:52:05.030Z,9.07
2023-04-09T23:54:32.846Z,8.57
2023-04-09T23:56:59.808Z,11.27
2023-04-09T23:59:26.555Z,9.13
